Delta Pride — DSNG6 — position and weather

sailwx.info

Track history (hours):
 
Tides and Currents Weather Stations Pressure Air Temp Water Temp Dewpoint Dewpoint Depression Visibility Wind Speed Wind Dir Waves Ship Positions

Delta Pride

Last reported at 2015-Feb-25 23:00 UTC. Time now 2015-Mar-01 00:38 UTC.
Position N 54°30' W 168°42'.

Length 186 m; draft 10.9 m.

Type: Cargo ship. MMSI: 441339000.

Wind from 210 at 16 knots

Waves 1.0 meters (3 feet)

Barometer 1033.3 mb
Air temperature 6.0 ° C
Visibility: greater than 5.4 NM
Water temperature 7.0 ° C

Date/timePositionNaut miles runAvg speedWind from/ knotsBaromVisibWave heightAir tempDewpointWater temp
2015-Feb-25 23:00N 54°30' W 168°42'   210 / 161033.3 5.4 1.0 6.0 7.0
2015-Feb-20 11:07N 48°57' W 126°31'711.7
2015-Feb-20 10:33N 48°54' W 126°22'1211.9
2015-Feb-20 09:33N 48°49' W 126°06'1212.1
2015-Feb-20 08:33N 48°44' W 125°49'1211.7
2015-Feb-20 07:33N 48°39' W 125°33'1312.5
2015-Feb-20 06:33N 48°33' W 125°16'4413.1
2015-Feb-20 03:14N 48°22' W 124°12'913.2
2015-Feb-20 02:33N 48°19' W 123°60'1312.7
2015-Feb-20 01:33N 48°16' W 123°41'1010.3
2015-Feb-20 00:33N 48°20' W 123°27'9 8.7
2015-Feb-19 23:33N 48°24' W 123°15'10 9.6
2015-Feb-19 22:33N 48°33' W 123°13'10 9.6
2015-Feb-19 21:33N 48°43' W 123°14'1010.2
2015-Feb-19 20:33N 48°49' W 123°01'1211.8
2015-Feb-19 19:33N 48°57' W 123°14'1111.1
2015-Feb-19 18:33N 49°06' W 123°24'1211.7
2015-Feb-19 17:33N 49°17' W 123°19'10 9.7
2015-Feb-19 16:33N 49°18' W 123°04'1 0.6
2015-Feb-19 15:33N 49°18' W 123°03'0 0.0
2015-Feb-19 14:33N 49°18' W 123°03'0 0.0
2015-Feb-19 13:33N 49°18' W 123°03'0 0.0
2015-Feb-19 12:33N 49°18' W 123°03'0 0.0
2015-Feb-19 11:33N 49°18' W 123°03'0 0.0
2015-Feb-19 10:33N 49°18' W 123°03'0 0.0
2015-Feb-19 09:33N 49°18' W 123°03'0 0.0
2015-Feb-19 08:33N 49°18' W 123°03'0 0.0
2015-Feb-19 07:33N 49°18' W 123°03'0 0.0
2015-Feb-19 06:33N 49°18' W 123°03'0 0.0
2015-Feb-19 05:33N 49°18' W 123°03'0 0.0
2015-Feb-19 04:33N 49°18' W 123°03'0 0.0
2015-Feb-19 03:33N 49°18' W 123°03'0 0.0
2015-Feb-19 02:33N 49°18' W 123°03'0 0.0
2015-Feb-19 01:33N 49°18' W 123°03'0 0.0
2015-Feb-19 00:33N 49°18' W 123°03'0 0.0
2015-Feb-18 23:33N 49°18' W 123°03'0 0.0
2015-Feb-18 22:33N 49°18' W 123°03'0 0.0
2015-Feb-18 21:33N 49°18' W 123°03'0 0.0
2015-Feb-18 20:33N 49°18' W 123°03'0 0.0
2015-Feb-18 19:33N 49°18' W 123°03'0 0.0
2015-Feb-18 18:33N 49°18' W 123°03'0 0.0
2015-Feb-18 17:33N 49°18' W 123°03'0 0.0
2015-Feb-18 16:33N 49°18' W 123°03'0 0.0
2015-Feb-18 15:33N 49°18' W 123°03'0 0.0
2015-Feb-18 14:33N 49°18' W 123°03'0 0.0
2015-Feb-18 13:33N 49°18' W 123°03'0 0.0
2015-Feb-18 12:33N 49°18' W 123°03'0 0.0
2015-Feb-18 11:33N 49°18' W 123°03'0 0.0
2015-Feb-18 10:33N 49°18' W 123°03'0 0.0
2015-Feb-18 09:33N 49°18' W 123°03'0 0.0
2015-Feb-18 08:33N 49°18' W 123°03'0 0.0
2015-Feb-18 07:33N 49°18' W 123°03'0 0.0
2015-Feb-18 06:33N 49°18' W 123°03'0 0.0
2015-Feb-18 05:33N 49°18' W 123°03'0 0.0
2015-Feb-18 04:33N 49°18' W 123°03'0 0.4
2015-Feb-18 03:33N 49°18' W 123°04'1 0.6
2015-Feb-18 02:31N 49°18' W 123°05'0 0.1
2015-Feb-18 01:31N 49°18' W 123°05'0 0.1
2015-Feb-18 00:31N 49°18' W 123°05'0 0.1
2015-Feb-17 23:32N 49°18' W 123°05'8 8.4
2015-Feb-17 22:33N 49°17' W 123°17'1313.2
2015-Feb-17 21:33N 49°04' W 123°21'1313.4
2015-Feb-17 20:34N 48°55' W 123°06'10 9.7
2015-Feb-17 19:33N 48°45' W 123°05'2010.2
2015-Feb-17 17:33N 48°25' W 123°12'10 9.6
2015-Feb-17 16:34N 48°20' W 123°24'6 6.3
2015-Feb-17 15:33N 48°14' W 123°29'6 5.9
2015-Feb-17 14:34N 48°13' W 123°37'7 7.0
2015-Feb-17 13:33N 48°13' W 123°48'9 9.2
2015-Feb-17 12:33N 48°15' W 124°01'1110.6
2015-Feb-17 11:33N 48°20' W 124°16'1110.9
2015-Feb-17 10:33N 48°25' W 124°30'1110.8
2015-Feb-17 09:33N 48°28' W 124°46'1010.1
2015-Feb-17 08:33N 48°27' W 125°01'1211.6
2015-Feb-17 07:33N 48°17' W 125°10'1312.0
2015-Feb-17 06:29N 48°06' W 125°19'  
Track history (hours):
 
Tides and Currents Weather Stations Pressure Air Temp Water Temp Dewpoint Dewpoint Depression Visibility Wind Speed Wind Dir Waves Ship Positions

Delta Pride

Last reported at 2015-Feb-25 23:00 UTC. Time now 2015-Mar-01 00:38 UTC.
Position N 54°30' W 168°42'.

Length 186 m; draft 10.9 m.

Type: Cargo ship. MMSI: 441339000.

Wind from 210 at 16 knots

Waves 1.0 meters (3 feet)

Barometer 1033.3 mb
Air temperature 6.0 ° C
Visibility: greater than 5.4 NM
Water temperature 7.0 ° C

Date/timePositionNaut miles runAvg speedWind from/ knotsBaromVisibWave heightAir tempDewpointWater temp
2015-Feb-25 23:00N 54°30' W 168°42'   210 / 161033.3 5.4 1.0 6.0 7.0
2015-Feb-20 11:07N 48°57' W 126°31'711.7
2015-Feb-20 10:33N 48°54' W 126°22'1211.9
2015-Feb-20 09:33N 48°49' W 126°06'1212.1
2015-Feb-20 08:33N 48°44' W 125°49'1211.7
2015-Feb-20 07:33N 48°39' W 125°33'1312.5
2015-Feb-20 06:33N 48°33' W 125°16'4413.1
2015-Feb-20 03:14N 48°22' W 124°12'913.2
2015-Feb-20 02:33N 48°19' W 123°60'1312.7
2015-Feb-20 01:33N 48°16' W 123°41'1010.3
2015-Feb-20 00:33N 48°20' W 123°27'9 8.7
2015-Feb-19 23:33N 48°24' W 123°15'10 9.6
2015-Feb-19 22:33N 48°33' W 123°13'10 9.6
2015-Feb-19 21:33N 48°43' W 123°14'1010.2
2015-Feb-19 20:33N 48°49' W 123°01'1211.8
2015-Feb-19 19:33N 48°57' W 123°14'1111.1
2015-Feb-19 18:33N 49°06' W 123°24'1211.7
2015-Feb-19 17:33N 49°17' W 123°19'10 9.7
2015-Feb-19 16:33N 49°18' W 123°04'1 0.6
2015-Feb-19 15:33N 49°18' W 123°03'0 0.0
2015-Feb-19 14:33N 49°18' W 123°03'0 0.0
2015-Feb-19 13:33N 49°18' W 123°03'0 0.0
2015-Feb-19 12:33N 49°18' W 123°03'0 0.0
2015-Feb-19 11:33N 49°18' W 123°03'0 0.0
2015-Feb-19 10:33N 49°18' W 123°03'0 0.0
2015-Feb-19 09:33N 49°18' W 123°03'0 0.0
2015-Feb-19 08:33N 49°18' W 123°03'0 0.0
2015-Feb-19 07:33N 49°18' W 123°03'0 0.0
2015-Feb-19 06:33N 49°18' W 123°03'0 0.0
2015-Feb-19 05:33N 49°18' W 123°03'0 0.0
2015-Feb-19 04:33N 49°18' W 123°03'0 0.0
2015-Feb-19 03:33N 49°18' W 123°03'0 0.0
2015-Feb-19 02:33N 49°18' W 123°03'0 0.0
2015-Feb-19 01:33N 49°18' W 123°03'0 0.0
2015-Feb-19 00:33N 49°18' W 123°03'0 0.0
2015-Feb-18 23:33N 49°18' W 123°03'0 0.0
2015-Feb-18 22:33N 49°18' W 123°03'0 0.0
2015-Feb-18 21:33N 49°18' W 123°03'0 0.0
2015-Feb-18 20:33N 49°18' W 123°03'0 0.0
2015-Feb-18 19:33N 49°18' W 123°03'0 0.0
2015-Feb-18 18:33N 49°18' W 123°03'0 0.0
2015-Feb-18 17:33N 49°18' W 123°03'0 0.0
2015-Feb-18 16:33N 49°18' W 123°03'0 0.0
2015-Feb-18 15:33N 49°18' W 123°03'0 0.0
2015-Feb-18 14:33N 49°18' W 123°03'0 0.0
2015-Feb-18 13:33N 49°18' W 123°03'0 0.0
2015-Feb-18 12:33N 49°18' W 123°03'0 0.0
2015-Feb-18 11:33N 49°18' W 123°03'0 0.0
2015-Feb-18 10:33N 49°18' W 123°03'0 0.0
2015-Feb-18 09:33N 49°18' W 123°03'0 0.0
2015-Feb-18 08:33N 49°18' W 123°03'0 0.0
2015-Feb-18 07:33N 49°18' W 123°03'0 0.0
2015-Feb-18 06:33N 49°18' W 123°03'0 0.0
2015-Feb-18 05:33N 49°18' W 123°03'0 0.0
2015-Feb-18 04:33N 49°18' W 123°03'0 0.4
2015-Feb-18 03:33N 49°18' W 123°04'1 0.6
2015-Feb-18 02:31N 49°18' W 123°05'0 0.1
2015-Feb-18 01:31N 49°18' W 123°05'0 0.1
2015-Feb-18 00:31N 49°18' W 123°05'0 0.1
2015-Feb-17 23:32N 49°18' W 123°05'8 8.4
2015-Feb-17 22:33N 49°17' W 123°17'1313.2
2015-Feb-17 21:33N 49°04' W 123°21'1313.4
2015-Feb-17 20:34N 48°55' W 123°06'10 9.7
2015-Feb-17 19:33N 48°45' W 123°05'2010.2
2015-Feb-17 17:33N 48°25' W 123°12'10 9.6
2015-Feb-17 16:34N 48°20' W 123°24'6 6.3
2015-Feb-17 15:33N 48°14' W 123°29'6 5.9
2015-Feb-17 14:34N 48°13' W 123°37'7 7.0
2015-Feb-17 13:33N 48°13' W 123°48'9 9.2
2015-Feb-17 12:33N 48°15' W 124°01'1110.6
2015-Feb-17 11:33N 48°20' W 124°16'1110.9
2015-Feb-17 10:33N 48°25' W 124°30'1110.8
2015-Feb-17 09:33N 48°28' W 124°46'1010.1
2015-Feb-17 08:33N 48°27' W 125°01'1211.6
2015-Feb-17 07:33N 48°17' W 125°10'1312.0
2015-Feb-17 06:29N 48°06' W 125°19'  

Dump ship's entire track history